createdAt,value
2019-06-08T00:00:51.818Z,99.90
2019-06-08T00:03:20.778Z,99.90
2019-06-08T00:05:49.879Z,99.90
2019-06-08T00:08:19.250Z,99.90
2019-06-08T00:10:48.167Z,99.90
2019-06-08T00:13:17.094Z,99.90
2019-06-08T00:15:46.088Z,99.90
2019-06-08T00:18:15.231Z,99.90
2019-06-08T00:20:44.096Z,99.90
2019-06-08T00:23:13.758Z,99.90
2019-06-08T00:25:42.916Z,99.90
2019-06-08T00:28:11.999Z,99.90
2019-06-08T00:30:41.471Z,99.90
2019-06-08T00:33:10.315Z,99.90
2019-06-08T00:35:39.085Z,99.90
2019-06-08T00:38:07.868Z,99.90
2019-06-08T00:40:36.974Z,99.90
2019-06-08T00:43:05.817Z,99.90
2019-06-08T00:45:34.666Z,99.90
2019-06-08T00:48:03.905Z,99.90
2019-06-08T00:50:32.694Z,99.90
2019-06-08T00:53:01.493Z,99.90
2019-06-08T00:55:30.435Z,99.90
2019-06-08T00:57:59.416Z,99.90
2019-06-08T01:00:28.843Z,99.90
2019-06-08T01:02:57.771Z,99.90
2019-06-08T01:05:26.972Z,99.90
2019-06-08T01:07:56.124Z,99.90
2019-06-08T01:10:25.928Z,99.90
2019-06-08T01:12:54.793Z,99.90
2019-06-08T01:15:29.669Z,99.90
2019-06-08T01:18:03.282Z,99.90
2019-06-08T01:20:25.693Z,99.90
2019-06-08T01:22:54.603Z,99.90
2019-06-08T01:25:23.689Z,99.90
2019-06-08T01:27:52.560Z,99.90
2019-06-08T01:30:22.174Z,99.90
2019-06-08T01:32:51.062Z,99.90
2019-06-08T01:35:20.857Z,99.90
2019-06-08T01:37:49.820Z,99.90
2019-06-08T01:40:18.902Z,99.90
2019-06-08T01:42:47.687Z,99.90
2019-06-08T01:45:30.392Z,99.90
2019-06-08T01:48:00.853Z,99.90
2019-06-08T01:50:30.562Z,99.90
2019-06-08T01:53:00.184Z,99.90
2019-06-08T01:55:29.261Z,99.90
2019-06-08T01:57:58.287Z,99.90
2019-06-08T02:00:31.675Z,99.90
2019-06-08T02:02:58.884Z,99.90
2019-06-08T02:05:28.219Z,99.90
2019-06-08T02:07:57.361Z,99.90
2019-06-08T02:10:26.620Z,99.90
2019-06-08T02:12:55.607Z,99.90
2019-06-08T02:15:25.230Z,99.90
2019-06-08T02:17:54.149Z,99.90
2019-06-08T02:20:23.076Z,99.90
2019-06-08T02:22:51.936Z,99.90
2019-06-08T02:25:29.392Z,99.90
2019-06-08T02:27:58.587Z,99.90
2019-06-08T02:30:31.221Z,99.90
2019-06-08T02:33:00.353Z,99.90
2019-06-08T02:35:30.698Z,99.90
2019-06-08T02:37:59.640Z,99.90
2019-06-08T02:40:30.220Z,99.90
2019-06-08T02:42:59.099Z,99.90
2019-06-08T02:45:29.621Z,99.90
2019-06-08T02:47:58.738Z,99.90
2019-06-08T02:50:54.263Z,99.90
2019-06-08T02:53:25.678Z,99.90
2019-06-08T02:55:55.416Z,99.90
2019-06-08T02:58:25.195Z,99.90
2019-06-08T03:00:55.427Z,99.90
2019-06-08T03:03:25.754Z,99.90
2019-06-08T03:05:54.711Z,99.90
2019-06-08T03:08:25.051Z,99.90
2019-06-08T03:10:54.582Z,99.90
2019-06-08T03:13:24.272Z,99.90
2019-06-08T03:15:53.630Z,99.90
2019-06-08T03:18:22.493Z,99.90
2019-06-08T03:20:51.477Z,99.90
2019-06-08T03:23:20.711Z,99.90
2019-06-08T03:25:52.953Z,99.90
2019-06-08T03:28:20.143Z,99.90
2019-06-08T03:30:54.481Z,99.90
2019-06-08T03:33:19.585Z,99.90
2019-06-08T03:35:56.843Z,99.90
2019-06-08T03:38:19.248Z,99.90
2019-06-08T03:40:48.050Z,99.90
2019-06-08T03:43:16.838Z,99.90
2019-06-08T03:45:45.631Z,99.90
2019-06-08T03:48:14.817Z,99.90
2019-06-08T03:50:46.152Z,99.90
2019-06-08T03:53:14.764Z,99.90
2019-06-08T03:55:46.608Z,99.90
2019-06-08T03:58:14.447Z,99.90
2019-06-08T04:00:44.411Z,99.90
2019-06-08T04:03:13.285Z,99.90
2019-06-08T04:05:42.709Z,99.90
2019-06-08T04:08:12.575Z,99.90
2019-06-08T04:10:42.136Z,99.90
2019-06-08T04:13:12.051Z,99.90
2019-06-08T04:15:42.114Z,99.90
2019-06-08T04:18:11.499Z,99.90
2019-06-08T04:20:42.791Z,99.90
2019-06-08T04:23:11.058Z,99.90
2019-06-08T04:25:40.626Z,99.90
2019-06-08T04:28:10.615Z,99.90
2019-06-08T04:30:41.092Z,99.90
2019-06-08T04:33:10.269Z,99.90
2019-06-08T04:35:40.227Z,99.90
2019-06-08T04:38:10.424Z,99.90
2019-06-08T04:40:40.010Z,99.90
2019-06-08T04:43:10.201Z,99.90
2019-06-08T04:45:40.932Z,99.90
2019-06-08T04:48:10.052Z,99.90
2019-06-08T04:50:40.720Z,99.90
2019-06-08T04:53:09.426Z,99.90
2019-06-08T04:55:38.840Z,99.90
2019-06-08T04:58:08.074Z,99.90
2019-06-08T05:00:38.912Z,99.90
2019-06-08T05:03:07.409Z,99.90
2019-06-08T05:05:36.244Z,99.90
2019-06-08T05:08:06.450Z,99.90
2019-06-08T05:10:35.245Z,99.90
2019-06-08T05:13:04.221Z,99.90
2019-06-08T05:15:33.456Z,99.90
2019-06-08T05:18:02.401Z,99.90
2019-06-08T05:20:39.059Z,99.90
2019-06-08T05:23:02.630Z,99.90
2019-06-08T05:25:31.569Z,99.90
2019-06-08T05:28:00.615Z,99.90
2019-06-08T05:30:29.524Z,99.90
2019-06-08T05:32:58.493Z,99.90
2019-06-08T05:35:27.697Z,99.90
2019-06-08T05:37:56.520Z,99.90
2019-06-08T05:40:25.596Z,99.90
2019-06-08T05:42:54.424Z,99.90
2019-06-08T05:45:23.582Z,99.90
2019-06-08T05:47:52.360Z,99.90
2019-06-08T05:50:21.158Z,99.90
2019-06-08T05:52:50.302Z,99.90
2019-06-08T05:55:19.321Z,99.90
2019-06-08T05:57:48.399Z,99.90
2019-06-08T06:00:17.814Z,99.90
2019-06-08T06:02:46.981Z,99.90
2019-06-08T06:05:17.075Z,99.90
2019-06-08T06:07:46.753Z,99.90
2019-06-08T06:10:16.359Z,99.90
2019-06-08T06:12:45.333Z,99.90
2019-06-08T06:15:15.530Z,99.90
2019-06-08T06:17:46.614Z,99.90
2019-06-08T06:20:15.201Z,99.90
2019-06-08T06:22:45.697Z,99.90
2019-06-08T06:25:15.266Z,99.90
2019-06-08T06:27:45.509Z,99.90
2019-06-08T06:30:15.483Z,99.90
2019-06-08T06:32:45.883Z,99.90
2019-06-08T06:35:15.153Z,99.90
2019-06-08T06:37:43.976Z,99.90
2019-06-08T06:40:13.167Z,99.90
2019-06-08T06:42:42.078Z,99.90
2019-06-08T06:45:11.133Z,99.90
2019-06-08T06:47:40.183Z,99.90
2019-06-08T06:50:09.496Z,99.90
2019-06-08T06:52:38.385Z,99.90
2019-06-08T06:55:07.504Z,99.90
2019-06-08T06:57:36.931Z,99.90
2019-06-08T07:00:07.129Z,99.90
2019-06-08T07:02:36.329Z,99.90
2019-06-08T07:05:06.060Z,99.90
2019-06-08T07:07:35.329Z,99.90
2019-06-08T07:10:05.068Z,99.90
2019-06-08T07:12:33.876Z,99.90
2019-06-08T07:15:02.760Z,99.90
2019-06-08T07:17:31.545Z,99.90
2019-06-08T07:20:00.348Z,99.90
2019-06-08T07:22:29.398Z,99.90
2019-06-08T07:24:58.674Z,99.90
2019-06-08T07:27:28.120Z,99.90
2019-06-08T07:29:57.436Z,99.90
2019-06-08T07:32:26.684Z,99.90
2019-06-08T07:34:55.522Z,99.90
2019-06-08T07:37:24.414Z,99.90
2019-06-08T07:39:53.650Z,99.90
2019-06-08T07:42:22.734Z,99.90
2019-06-08T07:44:52.827Z,99.90
2019-06-08T07:47:21.789Z,99.90
2019-06-08T07:49:51.159Z,99.90
2019-06-08T07:52:20.412Z,99.90
2019-06-08T07:54:50.697Z,99.90
2019-06-08T07:57:19.714Z,99.90
2019-06-08T07:59:49.187Z,99.90
2019-06-08T08:02:19.086Z,99.90
2019-06-08T08:04:48.408Z,99.90
2019-06-08T08:07:17.343Z,99.90
2019-06-08T08:09:46.185Z,99.90
2019-06-08T08:12:14.952Z,99.90
2019-06-08T08:14:43.735Z,99.90
2019-06-08T08:17:12.598Z,99.90
2019-06-08T08:19:41.371Z,99.90
2019-06-08T08:22:22.149Z,99.90
2019-06-08T08:24:40.759Z,99.90
2019-06-08T08:27:09.596Z,99.90
2019-06-08T08:29:38.471Z,99.90
2019-06-08T08:32:07.871Z,99.90
2019-06-08T08:34:38.291Z,99.90
2019-06-08T08:37:09.696Z,99.90
2019-06-08T08:39:37.884Z,99.90
2019-06-08T08:42:08.458Z,99.90
2019-06-08T08:44:38.146Z,99.90
2019-06-08T08:47:07.605Z,99.90
2019-06-08T08:49:38.053Z,99.90
2019-06-08T08:52:08.802Z,99.90
2019-06-08T08:54:38.002Z,99.90
2019-06-08T08:57:08.411Z,99.90
2019-06-08T08:59:38.285Z,99.90
2019-06-08T09:02:08.370Z,99.90
2019-06-08T09:04:38.278Z,99.90
2019-06-08T09:07:10.157Z,99.90
2019-06-08T09:09:38.691Z,99.90
2019-06-08T09:12:08.259Z,99.90
2019-06-08T09:14:41.104Z,99.90
2019-06-08T09:17:08.730Z,99.90
2019-06-08T09:19:38.264Z,99.70
2019-06-08T09:22:08.533Z,99.90
2019-06-08T09:24:39.015Z,98.50
2019-06-08T09:27:08.340Z,98.40
2019-06-08T09:29:38.825Z,97.90
2019-06-08T09:32:08.360Z,98.70
2019-06-08T09:34:38.548Z,99.40
2019-06-08T09:37:08.328Z,97.90
2019-06-08T09:39:38.521Z,97.80
2019-06-08T09:42:09.004Z,97.70
2019-06-08T09:44:38.426Z,98.50
2019-06-08T09:47:12.138Z,98.60
2019-06-08T09:49:38.037Z,98.30
2019-06-08T09:52:08.560Z,99.40
2019-06-08T09:54:38.481Z,99.70
2019-06-08T09:57:09.086Z,99.10
2019-06-08T09:59:38.869Z,97.70
2019-06-08T10:02:12.686Z,99.00
2019-06-08T10:04:39.278Z,98.90
2019-06-08T10:07:08.943Z,98.20
2019-06-08T10:09:38.306Z,97.70
2019-06-08T10:12:09.906Z,98.60
2019-06-08T10:14:38.165Z,99.00
2019-06-08T10:17:08.955Z,98.90
2019-06-08T10:19:38.049Z,98.10
2019-06-08T10:22:08.597Z,96.90
2019-06-08T10:24:38.787Z,98.40
2019-06-08T10:27:11.237Z,98.00
2019-06-08T10:29:38.701Z,98.30
2019-06-08T10:32:09.622Z,96.60
2019-06-08T10:34:38.863Z,97.90
2019-06-08T10:37:12.672Z,97.50
2019-06-08T10:39:38.683Z,97.30
2019-06-08T10:42:11.047Z,97.70
2019-06-08T10:44:38.395Z,96.40
2019-06-08T10:47:10.058Z,96.80
2019-06-08T10:49:38.413Z,97.00
2019-06-08T10:52:10.657Z,98.40
2019-06-08T10:54:38.292Z,96.90
2019-06-08T10:57:07.717Z,96.60
2019-06-08T10:59:40.069Z,96.00
2019-06-08T11:02:12.463Z,96.40
2019-06-08T11:04:38.810Z,97.50
2019-06-08T11:07:15.359Z,97.80
2019-06-08T11:09:39.503Z,97.90
2019-06-08T11:12:14.600Z,97.70
2019-06-08T11:14:40.761Z,98.10
2019-06-08T11:17:11.207Z,97.90
2019-06-08T11:19:40.783Z,98.90
2019-06-08T11:22:14.320Z,96.60
2019-06-08T11:24:40.256Z,98.10
2019-06-08T11:27:12.477Z,96.80
2019-06-08T11:29:39.795Z,96.50
2019-06-08T11:32:10.947Z,95.70
2019-06-08T11:34:39.309Z,96.00
2019-06-08T11:37:11.877Z,95.90
2019-06-08T11:39:38.676Z,95.50
2019-06-08T11:42:10.654Z,97.50
2019-06-08T11:44:38.960Z,95.30
2019-06-08T11:47:12.194Z,96.50
2019-06-08T11:49:39.272Z,95.70
2019-06-08T11:52:09.071Z,96.30
2019-06-08T11:54:41.139Z,96.80
2019-06-08T11:57:11.638Z,96.90
2019-06-08T11:59:42.250Z,96.20
2019-06-08T12:02:13.715Z,96.00
2019-06-08T12:04:41.650Z,95.90
2019-06-08T12:07:12.248Z,95.70
2019-06-08T12:09:41.256Z,97.20
2019-06-08T12:12:17.219Z,96.60
2019-06-08T12:14:40.739Z,97.80
2019-06-08T12:17:14.337Z,96.30
2019-06-08T12:19:40.193Z,97.90
2019-06-08T12:22:11.334Z,96.50
2019-06-08T12:24:42.349Z,96.40
2019-06-08T12:27:23.676Z,96.60
2019-06-08T12:29:40.852Z,96.90
2019-06-08T12:32:12.262Z,96.40
2019-06-08T12:34:40.277Z,96.20
2019-06-08T12:37:15.622Z,98.10
2019-06-08T12:39:39.710Z,96.00
2019-06-08T12:42:14.674Z,96.00
2019-06-08T12:44:43.466Z,96.30
2019-06-08T12:47:13.914Z,96.40
2019-06-08T12:49:40.531Z,98.10
2019-06-08T12:52:12.040Z,96.20
2019-06-08T12:54:39.987Z,96.90
2019-06-08T12:57:13.408Z,97.00
2019-06-08T12:59:39.993Z,95.10
2019-06-08T13:02:12.934Z,95.30
2019-06-08T13:04:40.172Z,94.50
2019-06-08T13:07:10.494Z,95.20
2019-06-08T13:09:39.836Z,96.20
2019-06-08T13:12:09.719Z,95.20
2019-06-08T13:14:39.451Z,95.20
2019-06-08T13:17:09.958Z,94.80
2019-06-08T13:19:38.996Z,95.60
2019-06-08T13:22:08.991Z,96.30
2019-06-08T13:24:38.040Z,95.10
2019-06-08T13:27:07.136Z,95.00
2019-06-08T13:29:35.943Z,94.90
2019-06-08T13:32:04.907Z,95.20
2019-06-08T13:34:34.017Z,94.10
2019-06-08T13:37:02.876Z,95.20
2019-06-08T13:39:31.719Z,94.60
2019-06-08T13:42:00.883Z,96.40
2019-06-08T13:44:30.297Z,95.70
2019-06-08T13:46:59.391Z,95.60
2019-06-08T13:49:30.771Z,95.80
2019-06-08T13:51:58.755Z,96.50
2019-06-08T13:54:30.863Z,96.10
2019-06-08T13:56:59.036Z,97.40
2019-06-08T13:59:31.048Z,96.70
2019-06-08T14:01:59.971Z,97.50
2019-06-08T14:04:29.353Z,97.30
2019-06-08T14:06:58.413Z,97.00
2019-06-08T14:09:31.518Z,95.50
2019-06-08T14:11:58.902Z,96.70
2019-06-08T14:14:28.997Z,95.30
2019-06-08T14:16:58.865Z,96.30
2019-06-08T14:19:31.535Z,96.20
2019-06-08T14:22:00.200Z,96.10
2019-06-08T14:24:34.107Z,96.60
2019-06-08T14:26:59.624Z,95.70
2019-06-08T14:29:30.528Z,96.60
2019-06-08T14:31:59.511Z,96.60
2019-06-08T14:34:30.858Z,96.00
2019-06-08T14:36:59.663Z,96.10
2019-06-08T14:39:31.090Z,95.30
2019-06-08T14:41:59.123Z,96.60
2019-06-08T14:44:28.751Z,96.10
2019-06-08T14:47:00.298Z,97.00
2019-06-08T14:49:34.560Z,97.50
2019-06-08T14:51:59.795Z,96.40
2019-06-08T14:54:33.284Z,95.60
2019-06-08T14:56:59.162Z,95.30
2019-06-08T14:59:31.324Z,95.80
2019-06-08T15:01:58.520Z,95.90
2019-06-08T15:04:34.090Z,96.10
2019-06-08T15:06:58.581Z,95.80
2019-06-08T15:09:27.720Z,96.30
2019-06-08T15:11:58.197Z,96.10
2019-06-08T15:14:29.257Z,95.90
2019-06-08T15:16:59.071Z,95.80
2019-06-08T15:19:29.465Z,95.70
2019-06-08T15:21:58.804Z,96.30
2019-06-08T15:24:30.663Z,95.80
2019-06-08T15:26:58.388Z,95.60
2019-06-08T15:29:29.608Z,96.10
2019-06-08T15:31:58.282Z,95.60
2019-06-08T15:34:29.589Z,95.60
2019-06-08T15:36:58.298Z,94.60
2019-06-08T15:39:30.729Z,94.90
2019-06-08T15:42:00.032Z,95.40
2019-06-08T15:44:29.073Z,95.70
2019-06-08T15:46:58.791Z,95.20
2019-06-08T15:49:30.389Z,95.20
2019-06-08T15:51:58.203Z,95.50
2019-06-08T15:54:32.251Z,95.20
2019-06-08T15:56:58.834Z,95.30
2019-06-08T15:59:31.206Z,95.40
2019-06-08T16:01:58.383Z,95.10
2019-06-08T16:04:27.828Z,95.30
2019-06-08T16:06:56.949Z,95.00
2019-06-08T16:09:26.199Z,95.10
2019-06-08T16:11:55.244Z,95.60
2019-06-08T16:14:24.938Z,95.30
2019-06-08T16:16:54.055Z,95.60
2019-06-08T16:19:22.814Z,95.30
2019-06-08T16:21:51.906Z,95.50
2019-06-08T16:24:20.768Z,95.40
2019-06-08T16:26:53.318Z,96.10
2019-06-08T16:29:20.362Z,95.50
2019-06-08T16:31:49.450Z,95.40
2019-06-08T16:34:18.240Z,95.70
2019-06-08T16:36:48.015Z,95.30
2019-06-08T16:39:16.893Z,95.70
2019-06-08T16:41:45.722Z,95.40
2019-06-08T16:44:14.486Z,95.80
2019-06-08T16:46:43.525Z,95.50
2019-06-08T16:49:12.292Z,95.70
2019-06-08T16:51:41.073Z,95.10
2019-06-08T16:54:09.862Z,95.60
2019-06-08T16:56:38.594Z,95.50
2019-06-08T16:59:07.670Z,95.80
2019-06-08T17:01:36.878Z,94.80
2019-06-08T17:04:05.896Z,95.00
2019-06-08T17:06:35.277Z,95.60
2019-06-08T17:09:06.189Z,95.70
2019-06-08T17:11:34.934Z,95.40
2019-06-08T17:14:04.008Z,95.80
2019-06-08T17:16:34.318Z,96.40
2019-06-08T17:19:03.527Z,96.20
2019-06-08T17:21:32.334Z,95.50
2019-06-08T17:24:01.167Z,95.70
2019-06-08T17:26:30.493Z,96.10
2019-06-08T17:28:59.543Z,95.50
2019-06-08T17:31:28.644Z,95.80
2019-06-08T17:33:57.418Z,96.00
2019-06-08T17:36:26.581Z,96.10
2019-06-08T17:38:55.530Z,96.20
2019-06-08T17:41:24.346Z,96.10
2019-06-08T17:43:53.368Z,95.80
2019-06-08T17:46:22.488Z,95.80
2019-06-08T17:48:51.837Z,95.90
2019-06-08T17:51:20.989Z,96.30
2019-06-08T17:53:49.779Z,96.30
2019-06-08T17:56:18.538Z,96.20
2019-06-08T17:58:47.660Z,96.50
2019-06-08T18:01:16.770Z,96.30
2019-06-08T18:03:48.147Z,96.30
2019-06-08T18:06:17.962Z,96.60
2019-06-08T18:08:48.038Z,96.40
2019-06-08T18:11:17.409Z,96.30
2019-06-08T18:13:48.344Z,96.20
2019-06-08T18:16:19.591Z,96.60
2019-06-08T18:18:48.340Z,96.60
2019-06-08T18:21:17.834Z,97.00
2019-06-08T18:23:48.184Z,96.60
2019-06-08T18:26:17.370Z,96.70
2019-06-08T18:28:48.552Z,96.80
2019-06-08T18:31:18.121Z,96.80
2019-06-08T18:33:49.687Z,96.60
2019-06-08T18:36:17.767Z,96.90
2019-06-08T18:38:48.583Z,97.10
2019-06-08T18:41:17.705Z,97.20
2019-06-08T18:43:48.932Z,97.20
2019-06-08T18:46:17.981Z,97.10
2019-06-08T18:48:49.362Z,97.30
2019-06-08T18:51:17.634Z,97.60
2019-06-08T18:54:06.773Z,97.60
2019-06-08T18:56:17.945Z,97.50
2019-06-08T18:58:52.804Z,97.50
2019-06-08T19:01:21.928Z,97.70
2019-06-08T19:03:52.293Z,97.80
2019-06-08T19:06:19.927Z,97.70
2019-06-08T19:08:50.933Z,97.70
2019-06-08T19:11:19.934Z,97.80
2019-06-08T19:13:49.448Z,98.00
2019-06-08T19:16:18.672Z,97.20
2019-06-08T19:18:52.141Z,97.40
2019-06-08T19:21:18.285Z,97.10
2019-06-08T19:23:49.240Z,97.70
2019-06-08T19:26:17.803Z,97.20
2019-06-08T19:28:53.384Z,97.00
2019-06-08T19:31:17.658Z,97.20
2019-06-08T19:33:51.353Z,97.40
2019-06-08T19:36:17.228Z,97.50
2019-06-08T19:38:51.584Z,97.40
2019-06-08T19:41:17.502Z,97.60
2019-06-08T19:43:53.240Z,97.60
2019-06-08T19:46:18.054Z,97.60
2019-06-08T19:48:53.191Z,97.70
2019-06-08T19:51:17.473Z,97.70
2019-06-08T19:53:52.393Z,97.70
2019-06-08T19:56:17.749Z,98.00
2019-06-08T19:58:58.440Z,98.00
2019-06-08T20:01:18.603Z,98.00
2019-06-08T20:03:47.410Z,98.10
2019-06-08T20:06:17.605Z,98.50
2019-06-08T20:08:49.927Z,98.40
2019-06-08T20:11:17.331Z,98.40
2019-06-08T20:13:46.115Z,98.40
2019-06-08T20:16:17.300Z,98.50
2019-06-08T20:18:48.219Z,98.50
2019-06-08T20:21:17.983Z,98.50
2019-06-08T20:23:48.273Z,98.60
2019-06-08T20:26:17.405Z,99.00
2019-06-08T20:28:48.954Z,98.90
2019-06-08T20:31:18.040Z,98.90
2019-06-08T20:33:50.259Z,99.10
2019-06-08T20:36:17.649Z,99.20
2019-06-08T20:38:47.468Z,99.20
2019-06-08T20:41:18.252Z,99.30
2019-06-08T20:43:50.316Z,99.50
2019-06-08T20:46:20.265Z,99.60
2019-06-08T20:48:50.112Z,99.60
2019-06-08T20:51:19.008Z,99.70
2019-06-08T20:53:49.362Z,99.70
2019-06-08T20:56:18.333Z,99.80
2019-06-08T20:58:48.327Z,99.90
2019-06-08T21:01:18.087Z,99.80
2019-06-08T21:03:48.581Z,99.90
2019-06-08T21:06:17.922Z,99.90
2019-06-08T21:08:48.977Z,99.90
2019-06-08T21:11:17.670Z,99.90
2019-06-08T21:13:49.655Z,99.90
2019-06-08T21:16:18.196Z,99.90
2019-06-08T21:18:47.307Z,99.90
2019-06-08T21:21:17.546Z,99.90
2019-06-08T21:23:50.633Z,99.90
2019-06-08T21:26:18.354Z,99.90
2019-06-08T21:28:51.286Z,99.90
2019-06-08T21:31:18.320Z,99.90
2019-06-08T21:33:49.313Z,99.90
2019-06-08T21:36:18.201Z,99.90
2019-06-08T21:38:50.303Z,99.90
2019-06-08T21:41:17.549Z,99.90
2019-06-08T21:43:48.915Z,99.90
2019-06-08T21:46:16.754Z,99.90
2019-06-08T21:48:48.813Z,99.90
2019-06-08T21:51:16.759Z,99.90
2019-06-08T21:53:48.367Z,99.90
2019-06-08T21:56:18.162Z,99.90
2019-06-08T21:58:48.521Z,99.90
2019-06-08T22:01:18.350Z,99.90
2019-06-08T22:03:47.235Z,99.90
2019-06-08T22:06:17.686Z,99.90
2019-06-08T22:08:48.102Z,99.90
2019-06-08T22:11:17.731Z,99.90
2019-06-08T22:13:47.612Z,99.90
2019-06-08T22:16:16.584Z,99.90
2019-06-08T22:18:47.344Z,99.90
2019-06-08T22:21:18.018Z,99.90
2019-06-08T22:23:47.607Z,99.90
2019-06-08T22:26:17.794Z,99.90
2019-06-08T22:28:48.236Z,99.90
2019-06-08T22:31:17.278Z,99.90
2019-06-08T22:33:48.264Z,99.90
2019-06-08T22:36:17.019Z,99.90
2019-06-08T22:38:47.766Z,99.90
2019-06-08T22:41:17.385Z,99.90
2019-06-08T22:43:48.119Z,99.90
2019-06-08T22:46:17.807Z,99.90
2019-06-08T22:48:47.831Z,99.90
2019-06-08T22:51:18.734Z,99.90
2019-06-08T22:53:47.828Z,99.90
2019-06-08T22:56:18.364Z,99.90
2019-06-08T22:58:47.967Z,99.90
2019-06-08T23:01:18.482Z,99.90
2019-06-08T23:03:47.741Z,99.90
2019-06-08T23:06:17.672Z,99.90
2019-06-08T23:08:48.033Z,99.90
2019-06-08T23:11:18.009Z,99.90
2019-06-08T23:13:47.299Z,99.90
2019-06-08T23:16:17.984Z,99.90
2019-06-08T23:18:47.860Z,99.90
2019-06-08T23:21:18.031Z,99.90
2019-06-08T23:23:47.667Z,99.90
2019-06-08T23:26:18.301Z,99.90
2019-06-08T23:28:47.340Z,99.90
2019-06-08T23:31:22.449Z,99.90
2019-06-08T23:33:48.255Z,99.90
2019-06-08T23:38:48.258Z,99.90
2019-06-08T23:41:17.704Z,99.90
2019-06-08T23:43:48.048Z,99.90
2019-06-08T23:46:18.087Z,99.90
2019-06-08T23:48:48.477Z,99.90
2019-06-08T23:51:18.077Z,99.90
2019-06-08T23:53:47.824Z,99.90
2019-06-08T23:56:18.342Z,99.90
2019-06-08T23:58:48.249Z,99.90
